createdAt,value
2023-02-19T00:01:18.246Z,99994.50
2023-02-19T00:06:21.329Z,99990.95
2023-02-19T00:11:25.716Z,99991.98
2023-02-19T00:16:32.964Z,99987.08
2023-02-19T00:21:34.657Z,99982.48
2023-02-19T00:26:40.005Z,99977.00
2023-02-19T00:31:42.315Z,99981.36
2023-02-19T00:36:44.420Z,99985.83
2023-02-19T00:41:46.768Z,99982.50
2023-02-19T00:46:48.728Z,99980.70
2023-02-19T00:51:52.661Z,99969.44
2023-02-19T00:56:54.215Z,99967.20
2023-02-19T01:01:55.776Z,99968.31
2023-02-19T01:06:57.335Z,99974.20
2023-02-19T01:11:59.100Z,99980.96
2023-02-19T01:17:00.945Z,99979.89
2023-02-19T01:22:02.801Z,99978.31
2023-02-19T01:27:04.788Z,99977.09
2023-02-19T01:32:06.445Z,99976.86
2023-02-19T01:37:12.457Z,99974.79
2023-02-19T01:42:17.410Z,99982.42
2023-02-19T01:47:20.406Z,99986.82
2023-02-19T01:52:34.517Z,99986.47
2023-02-19T01:57:40.707Z,99991.56
2023-02-19T02:02:45.823Z,99993.94
2023-02-19T02:08:06.105Z,99987.30
2023-02-19T02:13:07.919Z,99976.74
2023-02-19T02:18:35.929Z,99980.48
2023-02-19T02:24:25.868Z,99976.90
2023-02-19T02:29:49.196Z,99973.32
2023-02-19T02:35:04.093Z,99975.52
2023-02-19T02:40:08.350Z,99967.68
2023-02-19T02:45:38.001Z,99974.34
2023-02-19T02:50:46.182Z,99976.72
2023-02-19T02:55:52.230Z,99976.07
2023-02-19T03:01:28.109Z,99972.17
2023-02-19T03:06:33.609Z,99967.74
2023-02-19T03:11:58.095Z,99957.88
2023-02-19T03:17:27.185Z,99947.86
2023-02-19T03:22:36.402Z,99946.86
2023-02-19T03:27:41.531Z,99948.74
2023-02-19T03:32:49.604Z,99953.34
2023-02-19T03:38:18.800Z,99955.73
2023-02-19T03:43:37.756Z,99957.62
2023-02-19T03:49:14.950Z,99945.53
2023-02-19T03:54:33.649Z,99944.70
2023-02-19T03:59:54.384Z,99949.33
2023-02-19T04:05:14.072Z,99937.05
2023-02-19T04:10:18.746Z,99937.91
2023-02-19T04:15:25.203Z,99934.54
2023-02-19T04:20:32.207Z,99928.92
2023-02-19T04:25:35.970Z,99921.98
2023-02-19T04:30:37.924Z,99916.70
2023-02-19T04:35:39.532Z,99916.55
2023-02-19T04:40:41.313Z,99912.64
2023-02-19T04:45:42.863Z,99917.77
2023-02-19T04:50:44.433Z,99910.30
2023-02-19T04:55:47.001Z,99911.49
2023-02-19T05:00:52.877Z,99914.23
2023-02-19T05:05:54.517Z,99913.90
2023-02-19T05:10:59.786Z,99913.39
2023-02-19T05:16:04.390Z,99910.67
2023-02-19T05:21:06.493Z,99902.19
2023-02-19T05:26:11.990Z,99897.98
2023-02-19T05:31:14.834Z,99895.66
2023-02-19T05:36:17.896Z,99891.06
2023-02-19T05:41:21.855Z,99891.72
2023-02-19T05:46:26.244Z,99882.14
2023-02-19T05:51:27.946Z,99873.10
2023-02-19T05:56:38.074Z,99874.80
2023-02-19T06:01:39.623Z,99871.55
2023-02-19T06:06:42.437Z,99865.92
2023-02-19T06:11:44.142Z,99878.86
2023-02-19T06:16:45.649Z,99887.69
2023-02-19T06:21:51.107Z,99891.89
2023-02-19T06:26:52.705Z,99893.56
2023-02-19T06:31:54.412Z,99898.46
2023-02-19T06:36:57.864Z,99907.13
2023-02-19T06:41:59.659Z,99914.40
2023-02-19T06:47:01.205Z,99912.66
2023-02-19T06:52:03.797Z,99916.17
2023-02-19T06:57:05.387Z,99915.41
2023-02-19T07:02:07.502Z,99911.70
2023-02-19T07:07:12.084Z,99912.74
2023-02-19T07:12:13.689Z,99915.89
2023-02-19T07:17:15.197Z,99916.16
2023-02-19T07:22:16.706Z,99915.83
2023-02-19T07:27:18.310Z,99916.66
2023-02-19T07:32:20.215Z,99912.85
2023-02-19T07:37:22.021Z,99918.77
2023-02-19T07:42:23.859Z,99917.90
2023-02-19T07:47:25.480Z,99924.14
2023-02-19T07:52:28.296Z,99923.23
2023-02-19T07:57:31.400Z,99929.60
2023-02-19T08:02:51.390Z,99938.56
2023-02-19T08:07:53.082Z,99936.69
2023-02-19T08:13:15.405Z,99936.95
2023-02-19T08:18:19.103Z,99935.60
2023-02-19T08:23:21.134Z,99936.91
2023-02-19T08:28:22.851Z,99947.55
2023-02-19T08:33:24.801Z,99950.61
2023-02-19T08:38:26.377Z,99945.35
2023-02-19T08:43:28.206Z,99945.88
2023-02-19T08:48:29.778Z,99951.86
2023-02-19T08:53:33.012Z,99957.32
2023-02-19T08:58:35.352Z,99962.97
2023-02-19T09:03:37.099Z,99961.73
2023-02-19T09:08:38.599Z,99957.75
2023-02-19T09:13:40.272Z,99945.48
2023-02-19T09:18:42.277Z,99933.13
2023-02-19T09:23:43.914Z,99935.85
2023-02-19T09:28:45.588Z,99935.55
2023-02-19T09:33:48.601Z,99940.58
2023-02-19T09:38:50.520Z,99939.39
2023-02-19T09:43:52.592Z,99943.65
2023-02-19T09:49:01.002Z,99953.34
2023-02-19T09:54:06.391Z,99956.60
2023-02-19T09:59:19.888Z,99953.14
2023-02-19T10:04:21.431Z,99964.69
2023-02-19T10:09:27.050Z,99963.08
2023-02-19T10:14:42.778Z,99967.98
2023-02-19T10:19:44.533Z,99959.05
2023-02-19T10:24:52.016Z,99951.64
2023-02-19T10:29:53.830Z,99951.66
2023-02-19T10:35:07.637Z,99950.34
2023-02-19T10:40:28.895Z,99956.25
2023-02-19T10:45:50.461Z,99964.01
2023-02-19T10:50:57.152Z,99978.84
2023-02-19T10:56:15.389Z,99982.53
2023-02-19T11:01:17.328Z,99975.63
2023-02-19T11:06:22.177Z,99976.42
2023-02-19T11:11:33.613Z,99969.05
2023-02-19T11:16:45.686Z,99961.13
2023-02-19T11:21:48.139Z,99970.55
2023-02-19T11:26:50.011Z,99978.39
2023-02-19T11:31:51.709Z,99982.86
2023-02-19T11:37:18.000Z,99975.47
2023-02-19T11:42:29.586Z,99975.46
2023-02-19T11:47:53.153Z,99975.89
2023-02-19T11:53:22.579Z,99975.69
2023-02-19T11:58:39.945Z,99971.90
2023-02-19T12:04:16.631Z,99970.77
2023-02-19T12:09:30.024Z,99977.02
2023-02-19T12:14:44.400Z,99987.61
2023-02-19T12:20:16.529Z,99996.10
2023-02-19T12:25:39.719Z,99998.16
2023-02-19T12:30:56.496Z,99997.26
2023-02-19T12:36:16.236Z,100005.37
2023-02-19T12:41:44.436Z,100014.61
2023-02-19T12:46:54.849Z,100025.36
2023-02-19T12:52:01.153Z,100026.79
2023-02-19T12:57:27.497Z,100030.40
2023-02-19T13:02:44.098Z,100036.76
2023-02-19T13:07:56.739Z,100037.13
2023-02-19T13:13:04.319Z,100030.79
2023-02-19T13:18:24.487Z,100034.06
2023-02-19T13:23:54.007Z,100040.79
2023-02-19T13:29:20.417Z,100040.84
2023-02-19T13:34:54.866Z,100049.20
2023-02-19T13:40:00.443Z,100052.05
2023-02-19T13:45:05.394Z,100066.37
2023-02-19T13:50:08.629Z,100072.14
2023-02-19T13:55:43.026Z,100081.05
2023-02-19T14:00:52.040Z,100087.62
2023-02-19T14:05:58.729Z,100093.95
2023-02-19T14:11:03.184Z,100094.54
2023-02-19T14:16:04.801Z,100095.10
2023-02-19T14:21:25.037Z,100109.50
2023-02-19T14:26:27.880Z,100120.05
2023-02-19T14:31:36.661Z,100124.89
2023-02-19T14:36:53.775Z,100128.02
2023-02-19T14:42:01.926Z,100130.19
2023-02-19T14:47:07.838Z,100135.36
2023-02-19T14:52:18.902Z,100144.23
2023-02-19T14:57:43.350Z,100138.33
2023-02-19T15:02:45.235Z,100147.91
2023-02-19T15:07:46.902Z,100150.39
2023-02-19T15:12:54.997Z,100160.18
2023-02-19T15:17:59.429Z,100168.95
2023-02-19T15:23:04.645Z,100172.54
2023-02-19T15:28:28.783Z,100174.64
2023-02-19T15:33:30.523Z,100181.96
2023-02-19T15:38:33.870Z,100188.45
2023-02-19T15:43:44.919Z,100195.04
2023-02-19T15:48:59.266Z,100203.36
2023-02-19T15:54:13.680Z,100210.44
2023-02-19T15:59:21.817Z,100219.46
2023-02-19T16:04:24.290Z,100223.75
2023-02-19T16:09:31.089Z,100233.41
2023-02-19T16:14:35.366Z,100249.20
2023-02-19T16:19:43.233Z,100253.83
2023-02-19T16:24:55.263Z,100265.98
2023-02-19T16:29:57.841Z,100269.94
2023-02-19T16:34:59.874Z,100279.91
2023-02-19T16:40:07.588Z,100294.73
2023-02-19T16:45:09.117Z,100304.34
2023-02-19T16:50:39.692Z,100306.07
2023-02-19T16:55:41.212Z,100317.72
2023-02-19T17:00:43.114Z,100320.34
2023-02-19T17:05:45.317Z,100327.75
2023-02-19T17:10:47.334Z,100334.41
2023-02-19T17:15:48.911Z,100342.09
2023-02-19T17:21:11.102Z,100346.71
2023-02-19T17:26:18.585Z,100348.23
2023-02-19T17:31:20.349Z,100350.10
2023-02-19T17:36:27.069Z,100350.78
2023-02-19T17:41:29.624Z,100360.00
2023-02-19T17:46:31.131Z,100367.88
2023-02-19T17:51:33.307Z,100371.14
2023-02-19T17:56:35.290Z,100378.98
2023-02-19T18:01:38.608Z,100388.19
2023-02-19T18:06:40.223Z,100398.58
2023-02-19T18:11:46.555Z,100406.42
2023-02-19T18:16:50.240Z,100425.17
2023-02-19T18:21:52.566Z,100429.77
2023-02-19T18:26:54.130Z,100436.73
2023-02-19T18:31:56.145Z,100444.05
2023-02-19T18:36:58.137Z,100448.13
2023-02-19T18:42:00.702Z,100455.12
2023-02-19T18:47:02.318Z,100456.64
2023-02-19T18:52:04.155Z,100461.05
2023-02-19T18:57:05.781Z,100455.09
2023-02-19T19:02:09.536Z,100461.37
2023-02-19T19:07:11.137Z,100463.77
2023-02-19T19:12:13.614Z,100472.27
2023-02-19T19:17:15.500Z,100486.51
2023-02-19T19:22:22.784Z,100493.45
2023-02-19T19:27:24.750Z,100498.02
2023-02-19T19:32:26.651Z,100504.81
2023-02-19T19:37:29.446Z,100501.39
2023-02-19T19:42:31.015Z,100504.08
2023-02-19T19:47:32.563Z,100517.66
2023-02-19T19:52:34.429Z,100521.55
2023-02-19T19:57:36.402Z,100526.98
2023-02-19T20:02:38.024Z,100528.84
2023-02-19T20:07:39.888Z,100531.90
2023-02-19T20:12:41.734Z,100532.23
2023-02-19T20:17:43.226Z,100544.64
2023-02-19T20:22:44.862Z,100544.27
2023-02-19T20:27:49.002Z,100545.89
2023-02-19T20:32:51.703Z,100546.18
2023-02-19T20:37:53.312Z,100553.63
2023-02-19T20:42:54.848Z,100555.66
2023-02-19T20:47:56.476Z,100569.35
2023-02-19T20:52:58.212Z,100580.66
2023-02-19T20:58:00.208Z,100594.83
2023-02-19T21:03:02.249Z,100602.23
2023-02-19T21:08:04.687Z,100607.44
2023-02-19T21:13:06.280Z,100614.85
2023-02-19T21:18:07.894Z,100614.94
2023-02-19T21:23:09.415Z,100613.32
2023-02-19T21:28:12.810Z,100621.16
2023-02-19T21:33:15.063Z,100628.52
2023-02-19T21:38:16.593Z,100634.45
2023-02-19T21:43:18.207Z,100637.28
2023-02-19T21:48:19.726Z,100630.98
2023-02-19T21:53:21.406Z,100628.86
2023-02-19T21:58:23.399Z,100631.67
2023-02-19T22:03:26.655Z,100640.97
2023-02-19T22:08:28.514Z,100639.77
2023-02-19T22:13:30.357Z,100642.30
2023-02-19T22:18:31.954Z,100651.91
2023-02-19T22:23:33.910Z,100654.90
2023-02-19T22:28:35.549Z,100657.40
2023-02-19T22:33:37.062Z,100664.92
2023-02-19T22:38:38.648Z,100674.83
2023-02-19T22:43:40.320Z,100676.96
2023-02-19T22:48:42.035Z,100673.50
2023-02-19T22:53:47.943Z,100674.85
2023-02-19T22:58:49.729Z,100674.45
2023-02-19T23:03:59.118Z,100668.09
2023-02-19T23:09:11.044Z,100662.05
2023-02-19T23:14:13.283Z,100663.70
2023-02-19T23:19:16.004Z,100656.59
2023-02-19T23:24:18.756Z,100660.00
2023-02-19T23:29:25.165Z,100655.16
2023-02-19T23:34:27.493Z,100646.19
2023-02-19T23:39:29.207Z,100643.91
2023-02-19T23:44:30.804Z,100660.82
2023-02-19T23:49:32.352Z,100659.77
2023-02-19T23:54:34.811Z,100668.70
2023-02-19T23:59:36.722Z,100670.98
